Latest Weather Observations for Beaudesert AWS

IDQ60801

Issued at 2:35 pm EST Wednesday 3 September 2014 (issued every 30 minutes, with the page automatically refreshed every 10 minutes)

About weather observations | Map of weather stations | Latest weather observations for QLD | Other Formats
Station Details ID: 040983 Name: BEAUDESERT DRUMLEY STREET Lat: -27.97 Lon: 152.99 Height: 47.81 m
Data from the previous 72 hours. | See also: Recent months at Beaudesert AWS
Date/Time
EST
Temp
°C
App
Temp
°C
Dew
Point
Rel
Hum
%
Delta-T
°C
Wind Press
QNH
hPa
Press
MSL
hPa
Rain
since 9 am
mm
Dir
 
Spd
km/h
Gust
km/h
Spd
kts
Gust
kts
03/02:30pm 21.6 14.5 -1.6 21 10.1 WSW 26 37 14 20 1008.8 1008.7 0.0
03/02:00pm 21.9 14.9 -0.8 22 10.1 WSW 26 43 14 23 1008.9 1008.8 0.0
03/01:30pm 21.3 14.2 -1.3 22 9.9 W 26 39 14 21 1008.9 1008.8 0.0
03/01:00pm 21.1 14.0 -1.4 22 9.8 WSW 26 41 14 22 1009.3 1009.2 0.0
03/12:30pm 21.8 15.9 1.5 26 9.4 WSW 22 37 12 20 1009.6 1009.5 0.0
03/12:00pm 20.6 13.1 -1.2 23 9.5 WSW 28 41 15 22 1010.1 1010.0 0.0
03/11:30am 20.5 13.5 -0.7 24 9.3 WSW 26 37 14 20 1010.4 1010.3 0.0
03/11:00am 19.8 12.8 -0.8 25 9.0 WSW 26 41 14 22 1010.8 1010.7 0.0
03/10:46am 19.2 11.6 -1.8 24 8.9 WSW 28 48 15 26 1011.1 1011.0 0.0
03/10:30am 19.2 11.5 -0.2 27 8.5 WSW 30 39 16 21 1011.2 1011.1 0.0
03/10:00am 18.2 11.6 -0.1 29 8.0 W 24 39 13 21 1011.6 1011.5 0.0
03/09:30am 17.8 12.4 1.3 33 7.4 SW 19 26 10 14 1012.0 1011.9 0.0
03/09:00am 16.9 10.4 0.5 33 7.1 WSW 24 37 13 20 1011.9 1011.8 0.0
03/08:30am 16.4 11.0 1.3 36 6.7 WSW 19 28 10 15 1011.8 1011.7 0.0
03/08:00am 15.1 9.3 0.2 36 6.3 W 20 32 11 17 1011.8 1011.7 0.0
03/07:30am 14.3 9.2 0.9 40 5.7 W 17 28 9 15 1011.8 1011.7 0.0
03/07:00am 13.5 7.8 -0.9 37 5.9 WSW 19 35 10 19 1012.1 1012.0 0.0
03/06:30am 11.9 7.3 -0.9 41 5.1 W 13 22 7 12 1011.6 1011.5 0.0
03/06:00am 12.5 6.6 -1.1 39 5.5 W 20 30 11 16 1011.6 1011.5 0.0
03/05:30am 12.0 7.2 0.5 45 4.8 W 15 22 8 12 1011.5 1011.4 0.0
03/05:00am 10.8 7.9 1.4 52 3.9 WSW 6 7 3 4 1011.4 1011.3 0.0
03/04:30am 10.4 7.4 1.0 52 3.9 ESE 6 7 3 4 1011.3 1011.2 0.0
03/04:00am 11.8 9.6 0.9 47 4.6 W 2 7 1 4 1010.9 1010.8 0.0
03/03:30am 12.4 8.5 1.1 46 4.8 WSW 11 17 6 9 1011.0 1010.9 0.0
03/03:00am 11.8 8.3 1.4 49 4.4 SW 9 15 5 8 1011.3 1011.2 0.0
03/02:30am 12.4 8.8 0.8 45 4.9 WSW 9 17 5 9 1011.8 1011.7 0.0
03/02:00am 13.1 8.8 0.8 43 5.2 WSW 13 20 7 11 1012.1 1012.0 0.0
03/01:30am 13.3 9.7 0.7 42 5.3 W 9 15 5 8 1012.3 1012.2 0.0
03/01:00am 13.7 9.4 0.7 41 5.5 WSW 13 30 7 16 1012.5 1012.4 0.0
03/12:30am 13.5 10.3 0.5 41 5.5 SW 7 11 4 6 1012.8 1012.7 0.0
03/12:00am 13.4 9.8 0.4 41 5.5 SW 9 15 5 8 1012.9 1012.8 0.0
 
Date/Time
EST
Temp
°C
App
Temp
°C
Dew
Point
Rel
Hum
%
Delta-T
°C
Wind Press
QNH
hPa
Press
MSL
hPa
Rain
since 9 am
mm
Dir
 
Spd
km/h
Gust
km/h
Spd
kts
Gust
kts
02/11:30pm 13.4 10.1 0.1 40 5.6 SW 7 11 4 6 1012.9 1012.8 0.0
02/11:00pm 14.7 11.0 0.2 37 6.1 SW 9 19 5 10 1013.0 1012.9 0.0
02/10:30pm 15.8 10.1 0.4 35 6.6 WSW 20 33 11 18 1012.7 1012.6 0.0
02/10:00pm 16.7 10.6 0.4 33 7.1 W 22 32 12 17 1012.5 1012.4 0.0
02/09:30pm 17.0 11.2 0.2 32 7.3 W 20 32 11 17 1012.5 1012.4 0.0
02/09:00pm 16.1 11.7 0.3 34 6.8 WSW 13 20 7 11 1012.7 1012.6 0.0
02/08:30pm 17.2 12.0 0.4 32 7.3 WSW 17 26 9 14 1012.2 1012.1 0.0
02/08:00pm 18.3 10.8 1.3 32 7.6 WSW 30 50 16 27 1012.0 1011.9 0.0
02/07:51pm 18.4 11.3 1.4 32 7.6 WSW 28 50 15 27 1011.9 1011.8 0.0
02/07:30pm 18.6 13.5 2.9 35 7.3 WSW 19 28 10 15 1011.4 1011.3 0.0
02/07:00pm 20.1 15.0 2.9 32 8.1 W 19 32 10 17 1010.6 1010.5 0.0
02/06:30pm 19.4 15.2 3.6 35 7.5 W 15 22 8 12 1010.0 1009.9 0.0
02/06:00pm 20.4 15.9 4.0 34 7.9 WSW 17 26 9 14 1009.4 1009.3 0.0
02/05:30pm 21.6 16.1 4.2 32 8.5 WSW 22 35 12 19 1008.8 1008.7 0.0
02/05:00pm 22.7 16.9 2.2 26 9.7 WSW 22 28 12 15 1008.2 1008.1 0.0
02/04:30pm 24.0 16.8 1.0 22 10.7 W 28 39 15 21 1007.6 1007.5 0.0
02/04:00pm 24.9 17.4 1.1 21 11.2 W 30 46 16 25 1007.0 1006.9 0.0
02/03:30pm 26.3 19.1 2.9 22 11.5 W 30 50 16 27 1006.1 1006.0 0.0
02/03:23pm 26.4 18.8 3.0 22 11.5 W 32 50 17 27 1006.0 1005.9 0.0
02/03:21pm 26.4 18.1 2.3 21 11.7 W 35 50 19 27 1005.9 1005.8 0.0
02/03:00pm 25.6 22.3 4.7 26 10.6 WNW 11 22 6 12 1005.8 1005.7 0.0
02/02:30pm 26.5 22.4 6.0 27 10.6 NW 17 28 9 15 1006.0 1005.9 0.0
02/02:00pm 26.4 22.5 6.9 29 10.3 NW 17 30 9 16 1006.8 1006.7 0.0
02/01:30pm 25.9 22.1 6.0 28 10.3 NNW 15 28 8 15 1007.3 1007.2 0.0
02/01:00pm 25.1 22.4 7.3 32 9.4 NNW 11 17 6 9 1008.0 1007.9 0.0
02/12:30pm 24.4 21.5 8.0 35 8.7 NNW 13 26 7 14 1009.1 1009.0 0.0
02/12:00pm 23.4 20.7 9.0 40 7.8 NNW 13 24 7 13 1010.1 1010.0 0.0
02/11:30am 22.2 20.3 9.0 43 7.1 NNW 9 19 5 10 1010.8 1010.7 0.0
02/11:00am 21.0 18.8 9.3 47 6.2 NNW 11 20 6 11 1011.6 1011.5 0.0
02/10:30am 19.9 18.7 10.3 54 5.2 NNW 7 17 4 9 1012.4 1012.3 0.0
02/10:00am 17.8 16.6 10.4 62 4.0 N 7 11 4 6 1012.9 1012.8 0.0
02/09:30am 16.2 16.8 13.1 82 1.7 ESE 2 4 1 2 1013.3 1013.2 0.0
02/09:00am 14.9 16.0 13.6 92 0.7 CALM 0 0 0 0 1014.1 1014.0 0.0
02/08:30am 14.0 15.0 13.1 94 0.5 CALM 0 0 0 0 1014.0 1013.9 0.0
02/08:00am 12.9 13.5 12.0 94 0.5 CALM 0 0 0 0 1014.2 1014.1 0.0
02/07:30am 11.3 11.1 10.4 94 0.5 S 2 4 1 2 1014.4 1014.3 0.0
02/07:00am 10.6 10.2 9.7 94 0.5 ESE 2 4 1 2 1014.3 1014.2 0.0
02/06:30am 9.6 9.3 8.5 93 0.5 CALM 0 0 0 0 1014.2 1014.1 0.0
02/06:00am 10.0 9.8 8.9 93 0.5 CALM 0 0 0 0 1013.9 1013.8 0.0
02/05:30am 9.7 9.4 8.6 93 0.5 CALM 0 0 0 0 1014.1 1014.0 0.0
02/05:00am 10.3 10.1 9.2 93 0.5 CALM 0 0 0 0 1013.8 1013.7 0.0
02/04:30am 10.5 10.4 9.4 93 0.6 CALM 0 0 0 0 1013.8 1013.7 0.0
02/04:00am 10.0 9.7 8.8 92 0.6 CALM 0 0 0 0 1013.9 1013.8 0.0
02/03:30am 11.1 11.2 10.2 94 0.5 CALM 0 2 0 1 1013.9 1013.8 0.0
02/03:00am 10.5 10.4 9.4 93 0.6 CALM 0 0 0 0 1014.2 1014.1 0.0
02/02:30am 11.0 11.0 9.9 93 0.6 CALM 0 0 0 0 1014.3 1014.2 0.0
02/02:00am 10.3 10.1 9.1 92 0.6 CALM 0 0 0 0 1014.5 1014.4 0.0
02/01:30am 10.7 10.6 9.5 92 0.6 CALM 0 4 0 2 1014.7 1014.6 0.0
02/01:00am 12.2 12.6 11.1 93 0.6 CALM 0 0 0 0 1015.2 1015.1 0.0
02/12:30am 11.7 11.9 10.4 92 0.7 CALM 0 0 0 0 1015.6 1015.5 0.0
02/12:00am 11.7 11.5 10.3 91 0.7 WSW 2 4 1 2 1015.6 1015.5 0.0
 
Date/Time
EST
Temp
°C
App
Temp
°C
Dew
Point
Rel
Hum
%
Delta-T
°C
Wind Press
QNH
hPa
Press
MSL
hPa
Rain
since 9 am
mm
Dir
 
Spd
km/h
Gust
km/h
Spd
kts
Gust
kts
01/11:30pm 13.8 14.6 12.5 92 0.7 CALM 0 4 0 2 1015.5 1015.4 0.0
01/11:00pm 12.8 13.1 11.0 89 0.9 CALM 0 0 0 0 1015.7 1015.6 0.0
01/10:30pm 13.5 14.0 11.6 88 1.0 CALM 0 0 0 0 1015.8 1015.7 0.0
01/10:00pm 13.9 14.3 11.2 84 1.4 CALM 0 0 0 0 1015.8 1015.7 0.0
01/09:30pm 15.4 16.2 12.5 83 1.6 CALM 0 0 0 0 1015.8 1015.7 0.0
01/09:00pm 16.8 17.6 13.7 82 1.8 ENE 2 6 1 3 1016.0 1015.9 0.0
01/08:30pm 16.7 17.6 12.8 78 2.2 CALM 0 4 0 2 1016.1 1016.0 0.0
01/08:00pm 17.5 18.0 12.8 74 2.6 E 2 6 1 3 1016.1 1016.0 0.0
01/07:30pm 18.5 18.7 13.1 71 3.0 N 4 9 2 5 1016.1 1016.0 0.0
01/07:00pm 19.2 18.5 13.2 68 3.4 N 9 17 5 9 1015.8 1015.7 0.0
01/06:30pm 19.9 18.6 12.4 62 4.2 NNE 11 19 6 10 1015.1 1015.0 0.0
01/06:00pm 20.6 19.1 11.8 57 4.9 NNE 11 20 6 11 1014.7 1014.6 0.0
01/05:30pm 21.8 19.8 11.5 52 5.7 NNE 13 22 7 12 1014.5 1014.4 0.0
01/05:00pm 23.3 21.5 10.7 45 7.0 NNE 11 17 6 9 1014.4 1014.3 0.0
01/04:30pm 25.1 22.8 5.8 29 9.9 N 7 13 4 7 1014.0 1013.9 0.0
01/04:00pm 25.4 23.1 5.6 28 10.1 NW 7 13 4 7 1013.8 1013.7 0.0
01/03:30pm 25.5 22.8 5.7 28 10.2 NNW 9 19 5 10 1013.7 1013.6 0.0
01/03:00pm 25.3 22.6 5.5 28 10.1 NW 9 17 5 9 1014.3 1014.2 0.0
01/02:30pm 25.2 22.6 5.9 29 9.9 NW 9 13 5 7 1014.5 1014.4 0.0
01/02:00pm 25.8 23.5 7.4 31 9.7 WNW 9 17 5 9 1015.0 1014.9 0.0
01/01:30pm 24.6 20.6 4.9 28 9.9 WNW 15 35 8 19 1015.3 1015.2 0.0
01/01:00pm 23.5 22.1 8.8 39 7.9 W 6 11 3 6 1015.9 1015.8 0.0
01/12:30pm 23.3 22.0 9.3 41 7.6 NNW 6 11 3 6 1016.5 1016.4 0.0
01/12:00pm 23.9 22.8 10.6 43 7.4 NW 7 17 4 9 1016.9 1016.8 0.0
01/11:30am 22.6 22.4 11.7 50 6.1 NW 4 7 2 4 1017.5 1017.4 0.0
01/11:00am 22.6 22.7 12.8 54 5.6 WNW 4 7 2 4 1018.3 1018.2 0.0
01/10:30am 21.5 20.9 12.4 56 5.2 NW 7 11 4 6 1018.8 1018.7 0.0
01/10:00am 21.1 21.3 13.0 60 4.6 N 4 7 2 4 1019.3 1019.2 0.0
01/09:30am 19.9 20.1 13.1 65 3.9 WNW 4 7 2 4 1019.6 1019.6 0.0
01/09:00am 19.0 20.1 13.4 70 3.2 CALM 0 4 0 2 1019.7 1019.7 0.0
01/08:30am 16.9 17.8 13.0 78 2.2 CALM 0 0 0 0 1020.0 1020.0 0.0
01/08:00am 15.0 15.8 12.5 85 1.4 CALM 0 2 0 1 1019.8 1019.8 0.0
01/07:30am 13.9 14.5 11.9 88 1.1 CALM 0 0 0 0 1019.6 1019.6 0.0
01/07:00am 13.3 13.9 12.0 92 0.7 CALM 0 0 0 0 1019.2 1019.2 0.0
01/06:30am 11.7 11.9 10.4 92 0.7 CALM 0 2 0 1 1018.9 1018.9 0.0
01/06:00am 11.9 11.8 10.8 93 0.6 ESE 2 4 1 2 1018.9 1018.9 0.0
01/05:30am 11.5 11.6 10.2 92 0.7 CALM 0 0 0 0 1018.6 1018.6 0.0
01/05:00am 11.6 11.7 10.0 90 0.8 CALM 0 0 0 0 1018.3 1018.3 0.0
01/04:30am 12.6 13.0 11.3 92 0.7 CALM 0 0 0 0 1018.1 1018.1 0.0
01/04:00am 12.1 12.4 10.8 92 0.7 CALM 0 0 0 0 1018.3 1018.3 0.0
01/03:30am 12.7 13.0 10.9 89 0.9 CALM 0 0 0 0 1018.3 1018.3 0.0
01/03:00am 13.0 13.4 11.1 88 1.0 CALM 0 0 0 0 1018.2 1018.2 0.0
01/02:30am 13.6 14.2 11.8 89 1.0 CALM 0 2 0 1 1018.4 1018.4 0.0
01/02:00am 13.7 14.3 11.9 89 1.0 CALM 0 2 0 1 1018.6 1018.6 0.0
01/01:30am 13.3 13.8 11.7 90 0.9 CALM 0 0 0 0 1018.7 1018.7 0.0
01/01:00am 13.2 13.6 11.4 89 1.0 CALM 0 0 0 0 1018.7 1018.7 0.0
01/12:30am 12.8 13.1 11.0 89 0.9 CALM 0 0 0 0 1018.8 1018.8 0.0
01/12:00am 12.9 13.2 11.0 88 1.0 CALM 0 0 0 0 1018.8 1018.8 0.0
 
Date/Time
EST
Temp
°C
App
Temp
°C
Dew
Point
Rel
Hum
%
Delta-T
°C
Wind Press
QNH
hPa
Press
MSL
hPa
Rain
since 9 am
mm
Dir
 
Spd
km/h
Gust
km/h
Spd
kts
Gust
kts
31/11:30pm 12.6 12.8 10.7 88 1.0 CALM 0 0 0 0 1018.8 1018.8 0.0
31/11:00pm 12.6 12.8 10.7 88 1.0 CALM 0 0 0 0 1018.8 1018.8 0.0
31/10:30pm 12.8 13.0 10.5 86 1.2 CALM 0 0 0 0 1018.9 1018.9 0.0
31/10:00pm 14.1 14.7 12.0 87 1.1 CALM 0 0 0 0 1018.7 1018.7 0.0
31/09:30pm 14.5 15.3 12.4 87 1.1 CALM 0 0 0 0 1018.6 1018.6 0.0
31/09:00pm 13.8 14.3 11.5 86 1.2 CALM 0 0 0 0 1018.7 1018.7 0.0
31/08:30pm 14.2 14.7 11.5 84 1.4 CALM 0 0 0 0 1018.5 1018.5 0.0
31/08:00pm 15.1 15.5 11.1 77 2.1 CALM 0 4 0 2 1018.2 1018.2 0.0
31/07:30pm 17.1 17.4 12.2 73 2.7 NNE 2 6 1 3 1017.9 1017.9 0.0
31/07:00pm 18.0 17.9 12.2 69 3.2 N 4 6 2 3 1017.6 1017.6 0.0
31/06:30pm 18.2 18.6 12.4 69 3.2 NE 2 6 1 3 1017.2 1017.2 0.0
31/06:00pm 18.9 19.1 11.9 64 3.9 N 2 6 1 3 1016.8 1016.8 0.0
31/05:30pm 19.8 19.6 11.8 60 4.4 ENE 4 9 2 5 1016.4 1016.4 0.0
31/05:00pm 20.9 19.0 11.8 56 5.1 NE 13 20 7 11 1016.0 1016.0 0.0
31/04:30pm 22.4 20.9 11.8 51 6.0 NE 11 22 6 12 1015.6 1015.6 0.0
31/04:00pm 22.6 21.0 11.4 49 6.3 ENE 11 20 6 11 1015.2 1015.2 0.0
31/03:30pm 23.9 23.0 9.1 39 8.0 W 4 7 2 4 1015.0 1015.0 0.0
31/03:00pm 25.1 23.7 9.4 37 8.6 WNW 7 11 4 6 1015.0 1015.0 0.0

Other Formats:

Comma delimited format used in spreadsheet applications
http://www.bom.gov.au/fwo/IDQ60801/IDQ60801.95575.axf

JavaScript Object Notation format (JSON) in row-major order
http://www.bom.gov.au/fwo/IDQ60801/IDQ60801.95575.json